Time;durP1;ratioP1;P1;durP2;ratioP2;P2;SDS_P1;SDS_P2;PMS_P1;PMS_P2;Temp;Humidity;BMP_temperature;BMP_pressure;BME280_temperature;BME280_humidity;BME280_pressure;Samples;Min_cycle;Max_cycle;Signal;HPM_P1;HPM_P2
2023/03/30 00:01:10;;;;;;;13.45;3.00;;;11.60;99.90;;;;;;5056761;28;20155;-90
2023/03/30 00:03:41;;;;;;;21.98;3.75;;;11.60;99.90;;;;;;5074362;28;20050;-89
2023/03/30 00:06:13;;;;;;;19.02;3.20;;;11.50;99.90;;;;;;5083783;28;20040;-89
2023/03/30 00:08:39;;;;;;;16.63;3.30;;;11.30;99.90;;;;;;5066347;28;20041;-89
2023/03/30 00:11:12;;;;;;;11.85;2.85;;;11.10;99.90;;;;;;5056764;28;20035;-90
2023/03/30 00:13:57;;;;;;;9.82;2.80;;;10.80;99.90;;;;;;5072326;28;20039;-90
2023/03/30 00:16:23;;;;;;;22.00;6.30;;;10.60;99.90;;;;;;5050252;28;20029;-89
2023/03/30 00:18:49;;;;;;;13.60;4.13;;;10.60;99.90;;;;;;5072507;28;20089;-90
2023/03/30 00:21:16;;;;;;;8.07;3.08;;;10.40;99.90;;;;;;5056110;28;20052;-89
2023/03/30 00:23:45;;;;;;;16.17;4.10;;;10.20;99.90;;;;;;5073379;28;20491;-89
2023/03/30 00:26:11;;;;;;;14.95;3.22;;;10.10;99.90;;;;;;5071787;28;20037;-89
2023/03/30 00:28:37;;;;;;;17.60;3.85;;;10.00;99.90;;;;;;5072449;28;20043;-89
2023/03/30 00:31:03;;;;;;;12.30;4.40;;;10.00;99.90;;;;;;5072204;28;20032;-89
2023/03/30 00:33:29;;;;;;;17.52;4.30;;;9.90;99.90;;;;;;5071974;28;20091;-89
2023/03/30 00:35:57;;;;;;;12.02;4.00;;;9.90;99.90;;;;;;5077664;28;20055;-89
2023/03/30 00:38:24;;;;;;;17.92;3.42;;;9.90;99.90;;;;;;5072659;28;20460;-89
2023/03/30 00:40:58;;;;;;;16.85;3.90;;;9.90;99.90;;;;;;5055048;28;21602;-89
2023/03/30 00:43:25;;;;;;;13.65;3.72;;;9.90;99.90;;;;;;5055255;28;20039;-89
2023/03/30 00:45:51;;;;;;;14.85;3.63;;;9.90;99.90;;;;;;5055691;28;20124;-90
2023/03/30 00:48:21;;;;;;;11.07;3.47;;;9.90;99.90;;;;;;5056268;28;20024;-89
2023/03/30 00:51:13;;;;;;;13.32;3.33;;;9.90;99.90;;;;;;5072397;28;20052;-90
2023/03/30 00:53:47;;;;;;;15.15;3.65;;;9.90;99.90;;;;;;5071917;28;20090;-90
2023/03/30 00:56:15;;;;;;;13.45;3.63;;;9.80;99.90;;;;;;5048243;28;20031;-89
2023/03/30 00:58:43;;;;;;;14.63;3.58;;;9.80;99.90;;;;;;5055979;28;20017;-90
2023/03/30 01:01:13;;;;;;;14.18;3.42;;;9.80;99.90;;;;;;5089183;28;20021;-89
2023/03/30 01:03:46;;;;;;;11.60;3.58;;;9.90;99.90;;;;;;5072290;28;20020;-89
2023/03/30 01:06:16;;;;;;;11.38;3.42;;;9.90;99.90;;;;;;5072686;28;20030;-89
2023/03/30 01:08:43;;;;;;;20.58;4.32;;;9.90;99.90;;;;;;5072002;28;20039;-89
2023/03/30 01:11:10;;;;;;;12.68;3.75;;;9.90;99.90;;;;;;5072379;28;20028;-89
2023/03/30 01:13:40;;;;;;;10.40;3.45;;;10.00;99.90;;;;;;5055503;28;20487;-90
2023/03/30 01:16:19;;;;;;;22.23;4.05;;;10.10;99.90;;;;;;5072607;28;20037;-89
2023/03/30 01:19:22;;;;;;;21.70;4.75;;;10.20;99.90;;;;;;5069122;28;20131;-89
2023/03/30 01:22:28;;;;;;;20.38;4.68;;;10.30;99.90;;;;;;5054829;28;20075;-89
2023/03/30 01:25:14;;;;;;;18.67;3.63;;;10.40;99.90;;;;;;5076381;28;20134;-90
2023/03/30 01:27:44;;;;;;;13.93;3.25;;;10.40;99.90;;;;;;5075418;28;20028;-89
2023/03/30 01:30:44;;;;;;;18.65;3.22;;;10.50;99.90;;;;;;5068477;28;20048;-90
2023/03/30 01:33:30;;;;;;;13.52;3.22;;;10.40;99.90;;;;;;5066962;28;20111;-88
2023/03/30 01:36:16;;;;;;;17.80;4.00;;;10.40;99.90;;;;;;5075541;28;20037;-90
2023/03/30 01:39:16;;;;;;;13.35;3.33;;;10.50;99.90;;;;;;5059534;28;20009;-89
2023/03/30 01:41:55;;;;;;;11.65;4.35;;;10.50;99.90;;;;;;5071391;28;20537;-90
2023/03/30 01:44:39;;;;;;;16.30;3.65;;;10.50;99.90;;;;;;5074687;28;20024;-89
2023/03/30 01:47:31;;;;;;;13.57;3.50;;;10.60;99.90;;;;;;5077054;28;20360;-89
2023/03/30 01:50:03;;;;;;;14.73;3.65;;;10.60;99.90;;;;;;5057241;28;20032;-89
2023/03/30 01:52:40;;;;;;;15.98;4.25;;;10.60;99.90;;;;;;5059234;28;20032;-89
2023/03/30 01:55:13;;;;;;;13.88;3.97;;;10.60;99.90;;;;;;5076333;28;20119;-89
2023/03/30 01:58:13;;;;;;;14.07;3.38;;;10.70;99.90;;;;;;5071794;28;20037;-89
2023/03/30 02:00:43;;;;;;;14.95;3.80;;;10.70;99.90;;;;;;5070784;28;20032;-89
2023/03/30 02:03:29;;;;;;;19.58;3.70;;;10.70;99.90;;;;;;5075516;28;20052;-89
2023/03/30 02:06:10;;;;;;;13.50;3.40;;;10.70;99.90;;;;;;5059154;28;20028;-89
2023/03/30 02:08:38;;;;;;;17.90;3.65;;;10.70;99.90;;;;;;5077197;28;20075;-89
2023/03/30 02:11:06;;;;;;;11.25;3.00;;;10.70;99.90;;;;;;5075779;28;20076;-89
2023/03/30 02:13:36;;;;;;;12.35;3.28;;;10.70;99.90;;;;;;5075673;28;20024;-89
2023/03/30 02:16:16;;;;;;;15.25;3.67;;;10.70;99.90;;;;;;5075222;28;20028;-89
2023/03/30 02:18:44;;;;;;;22.02;3.42;;;10.70;99.90;;;;;;5058653;28;20115;-89
2023/03/30 02:21:11;;;;;;;13.15;3.70;;;10.80;99.90;;;;;;5075502;28;20031;-89
2023/03/30 02:23:41;;;;;;;13.88;3.60;;;10.70;99.90;;;;;;5076816;28;20031;-89
2023/03/30 02:26:07;;;;;;;14.68;3.22;;;10.80;99.90;;;;;;5075347;28;20552;-89
2023/03/30 02:28:34;;;;;;;29.10;3.92;;;10.90;99.90;;;;;;5059264;28;20238;-89
2023/03/30 02:31:00;;;;;;;21.17;3.13;;;10.90;99.90;;;;;;5058611;28;20734;-89
2023/03/30 02:33:49;;;;;;;12.50;3.00;;;10.90;99.90;;;;;;5058369;28;20033;-89
2023/03/30 02:36:44;;;;;;;22.08;4.40;;;10.90;99.90;;;;;;5092083;28;20037;-89
2023/03/30 02:39:31;;;;;;;14.50;3.72;;;11.00;99.90;;;;;;5075177;28;20597;-89
2023/03/30 02:42:20;;;;;;;19.58;4.53;;;10.90;99.90;;;;;;5056127;28;20021;-89
2023/03/30 02:44:46;;;;;;;15.15;3.83;;;10.80;99.90;;;;;;5074693;28;20020;-87
2023/03/30 02:47:27;;;;;;;22.48;4.72;;;10.70;99.90;;;;;;5074103;28;20034;-88
2023/03/30 02:50:04;;;;;;;20.00;4.47;;;10.50;99.90;;;;;;5071374;28;20472;-87
2023/03/30 02:52:55;;;;;;;24.15;5.78;;;10.40;99.90;;;;;;5057841;28;20262;-87
2023/03/30 02:55:37;;;;;;;20.67;5.47;;;10.20;99.90;;;;;;5073327;28;20025;-87
2023/03/30 02:58:27;;;;;;;24.10;5.18;;;10.00;99.90;;;;;;5075184;28;20430;-88
2023/03/30 03:01:19;;;;;;;21.83;5.47;;;9.90;99.90;;;;;;5072570;28;20035;-87
2023/03/30 03:03:57;;;;;;;30.20;5.57;;;9.70;99.90;;;;;;5073426;28;20031;-88
2023/03/30 03:06:25;;;;;;;26.80;6.07;;;9.60;99.90;;;;;;5057357;28;20071;-88
2023/03/30 03:08:54;;;;;;;22.73;4.72;;;9.60;99.90;;;;;;5073551;28;20055;-88
2023/03/30 03:11:24;;;;;;;22.13;5.85;;;9.50;99.90;;;;;;5057246;28;20028;-88
2023/03/30 03:13:50;;;;;;;29.08;5.20;;;9.50;99.90;;;;;;5053765;28;20068;-88
2023/03/30 03:16:16;;;;;;;20.45;5.50;;;9.50;99.90;;;;;;5056368;28;20036;-87
2023/03/30 03:19:03;;;;;;;31.45;5.90;;;9.50;99.90;;;;;;5073537;28;20698;-88
2023/03/30 03:21:29;;;;;;;17.40;5.57;;;9.40;99.90;;;;;;5072420;28;20039;-88
2023/03/30 03:23:55;;;;;;;22.10;7.28;;;9.40;99.90;;;;;;5073148;28;20438;-88
2023/03/30 03:26:22;;;;;;;20.95;4.57;;;9.50;99.90;;;;;;5057212;28;20021;-88
2023/03/30 03:28:48;;;;;;;23.80;4.88;;;9.50;99.90;;;;;;5073695;28;20075;-88
2023/03/30 03:31:14;;;;;;;19.58;5.43;;;9.50;99.90;;;;;;5089828;28;20535;-87
2023/03/30 03:33:40;;;;;;;21.98;5.95;;;9.60;99.90;;;;;;5072403;28;20074;-87
2023/03/30 03:36:13;;;;;;;23.63;5.68;;;9.50;99.90;;;;;;5057116;28;20458;-88
2023/03/30 03:38:57;;;;;;;28.98;8.13;;;9.50;99.90;;;;;;5056878;28;20107;-87
2023/03/30 03:41:26;;;;;;;28.30;6.88;;;9.50;99.90;;;;;;5056135;28;20049;-88
2023/03/30 03:44:04;;;;;;;26.23;4.80;;;9.60;99.90;;;;;;5055480;28;20040;-88
2023/03/30 03:46:31;;;;;;;33.60;7.15;;;9.50;99.90;;;;;;5074157;28;20040;-88
2023/03/30 03:48:56;;;;;;;29.20;6.75;;;9.50;99.90;;;;;;5055575;28;20032;-88
2023/03/30 03:51:42;;;;;;;27.30;7.25;;;9.50;99.90;;;;;;5055737;28;20395;-88
2023/03/30 03:54:07;;;;;;;27.63;6.13;;;9.50;99.90;;;;;;5055650;28;20032;-88
2023/03/30 04:00:22;;;;;;;22.42;5.57;;;9.50;99.90;;;;;;5070115;28;20040;-88
2023/03/30 04:02:51;;;;;;;23.00;6.05;;;9.50;99.90;;;;;;5072715;28;20078;-88
2023/03/30 04:05:18;;;;;;;22.55;6.35;;;9.50;99.90;;;;;;5056172;28;20079;-88
2023/03/30 04:07:45;;;;;;;36.88;7.63;;;9.60;99.90;;;;;;5072397;28;20456;-87
2023/03/30 04:10:12;;;;;;;28.90;6.13;;;9.60;99.90;;;;;;5072078;28;20039;-88
2023/03/30 04:12:45;;;;;;;22.83;5.97;;;9.60;99.90;;;;;;5057341;28;20040;-88
2023/03/30 04:15:26;;;;;;;18.67;5.38;;;9.70;99.90;;;;;;5073157;28;20067;-88
2023/03/30 04:18:05;;;;;;;20.55;5.60;;;9.80;99.90;;;;;;5056838;28;20115;-88
2023/03/30 04:20:52;;;;;;;28.70;6.97;;;9.90;99.90;;;;;;5072740;28;20028;-88
2023/03/30 04:23:34;;;;;;;21.05;5.10;;;9.90;99.90;;;;;;5073050;28;20028;-89
2023/03/30 04:26:21;;;;;;;29.90;6.45;;;9.80;99.90;;;;;;5050080;28;20025;-88
2023/03/30 04:29:05;;;;;;;21.58;5.75;;;9.90;99.90;;;;;;5072451;28;20036;-88
2023/03/30 04:31:34;;;;;;;27.60;6.22;;;9.90;99.90;;;;;;5073043;28;20522;-88
2023/03/30 04:34:20;;;;;;;30.17;6.13;;;9.80;99.90;;;;;;5102436;28;20032;-89
2023/03/30 04:37:06;;;;;;;38.92;6.40;;;9.80;99.90;;;;;;5087539;28;20032;-89
2023/03/30 04:40:06;;;;;;;29.45;5.95;;;9.80;99.90;;;;;;5064838;28;20037;-86
2023/03/30 04:42:48;;;;;;;23.30;5.90;;;9.70;99.90;;;;;;5056858;28;20714;-87
2023/03/30 04:45:17;;;;;;;21.55;7.28;;;9.70;99.90;;;;;;5073771;28;20037;-88
2023/03/30 04:48:01;;;;;;;24.95;6.60;;;9.60;99.90;;;;;;5071508;28;20027;-87
2023/03/30 04:50:48;;;;;;;21.02;6.05;;;9.50;99.90;;;;;;5073536;28;20052;-88
2023/03/30 04:53:45;;;;;;;29.77;8.38;;;9.50;99.90;;;;;;5081495;28;20087;-88
2023/03/30 04:56:14;;;;;;;19.30;5.25;;;9.40;99.90;;;;;;5109126;28;20048;-87
2023/03/30 04:59:06;;;;;;;26.48;5.40;;;9.40;99.90;;;;;;5084203;28;20016;-88
2023/03/30 05:01:40;;;;;;;25.10;5.53;;;9.30;99.90;;;;;;5096932;28;20016;-87
2023/03/30 05:04:29;;;;;;;24.90;6.15;;;9.30;99.90;;;;;;5077500;28;20037;-88
2023/03/30 05:06:56;;;;;;;24.60;6.15;;;9.30;99.90;;;;;;5075590;28;20044;-88
2023/03/30 05:09:40;;;;;;;30.75;7.88;;;9.30;99.90;;;;;;5086312;28;20032;-87
2023/03/30 05:12:24;;;;;;;22.95;6.55;;;9.40;99.90;;;;;;5075643;28;20039;-87
2023/03/30 05:15:02;;;;;;;32.65;9.90;;;9.30;99.90;;;;;;5075383;28;20046;-87
2023/03/30 05:17:40;;;;;;;29.77;7.72;;;9.30;99.90;;;;;;5060744;28;20021;-87
2023/03/30 05:20:29;;;;;;;23.08;7.88;;;9.30;99.90;;;;;;5065320;28;20072;-87
2023/03/30 05:23:20;;;;;;;21.67;7.22;;;9.30;99.90;;;;;;5061355;28;20025;-87
2023/03/30 05:26:05;;;;;;;23.58;6.15;;;9.40;99.90;;;;;;5075037;28;20479;-86
2023/03/30 05:28:55;;;;;;;38.70;6.70;;;9.60;99.90;;;;;;5085913;28;20036;-87
2023/03/30 05:31:24;;;;;;;27.42;8.00;;;9.60;99.90;;;;;;5091419;28;20029;-87
2023/03/30 05:34:18;;;;;;;22.25;5.90;;;9.60;99.90;;;;;;5066073;28;20488;-87
2023/03/30 05:36:52;;;;;;;21.55;6.88;;;9.50;99.90;;;;;;5074785;28;20028;-87
2023/03/30 05:39:33;;;;;;;25.98;7.43;;;9.40;99.90;;;;;;5091378;28;20044;-86
2023/03/30 05:42:24;;;;;;;32.00;8.75;;;9.40;99.90;;;;;;5075243;28;20036;-87
2023/03/30 05:45:10;;;;;;;49.30;16.95;;;9.40;99.90;;;;;;5061600;28;20125;-87
2023/03/30 05:48:01;;;;;;;32.13;10.32;;;9.30;99.90;;;;;;5049984;28;20029;-87
2023/03/30 05:50:47;;;;;;;42.15;11.82;;;9.20;99.90;;;;;;5068030;28;20124;-87
2023/03/30 05:53:29;;;;;;;33.17;11.02;;;9.20;99.90;;;;;;5080096;28;20475;-87
2023/03/30 05:56:13;;;;;;;39.28;13.10;;;9.30;99.90;;;;;;5076025;28;20046;-86
2023/03/30 05:59:11;;;;;;;46.20;13.77;;;9.30;99.90;;;;;;5046403;28;20036;-87
2023/03/30 06:01:57;;;;;;;38.08;12.50;;;9.30;99.90;;;;;;5057085;28;20031;-87
2023/03/30 06:04:26;;;;;;;26.50;10.98;;;9.20;99.90;;;;;;5070835;28;20105;-86
2023/03/30 06:06:52;;;;;;;32.58;10.23;;;9.20;99.90;;;;;;5064209;28;20400;-87
2023/03/30 06:09:18;;;;;;;28.85;10.48;;;9.20;99.90;;;;;;5060115;28;20028;-87
2023/03/30 06:11:45;;;;;;;45.20;14.88;;;9.20;99.90;;;;;;5058264;28;20033;-87
2023/03/30 06:14:18;;;;;;;43.67;15.43;;;9.20;99.90;;;;;;5064700;28;20033;-86
2023/03/30 06:16:58;;;;;;;38.92;12.63;;;9.20;99.90;;;;;;5074666;28;20446;-87
2023/03/30 06:19:24;;;;;;;34.38;10.98;;;9.30;99.90;;;;;;5076161;28;20120;-87
2023/03/30 06:21:52;;;;;;;27.33;8.45;;;9.40;99.90;;;;;;5068457;28;20025;-88
2023/03/30 06:24:39;;;;;;;26.80;9.05;;;9.40;99.90;;;;;;5065566;28;20112;-88
2023/03/30 06:27:06;;;;;;;39.90;11.32;;;9.50;99.90;;;;;;5061915;28;20021;-88
2023/03/30 06:29:32;;;;;;;34.85;8.82;;;9.50;99.90;;;;;;5048295;28;20070;-88
2023/03/30 06:31:58;;;;;;;40.85;15.57;;;9.60;99.90;;;;;;5063986;28;20057;-87
2023/03/30 06:34:43;;;;;;;44.78;15.27;;;9.50;99.90;;;;;;5064515;28;20396;-87
2023/03/30 06:37:11;;;;;;;34.83;11.73;;;9.60;99.90;;;;;;5066560;28;20055;-86
2023/03/30 06:39:37;;;;;;;40.28;12.50;;;9.60;99.90;;;;;;5052614;28;20051;-87
2023/03/30 06:42:05;;;;;;;34.45;10.13;;;9.70;99.90;;;;;;5058650;28;20021;-87
2023/03/30 06:44:40;;;;;;;35.50;9.07;;;9.80;99.90;;;;;;5053450;28;20086;-87
2023/03/30 06:47:13;;;;;;;38.05;10.90;;;9.90;99.90;;;;;;5075120;28;20033;-88
2023/03/30 06:49:39;;;;;;;33.47;9.10;;;9.90;99.90;;;;;;5054239;28;20036;-87
2023/03/30 06:52:33;;;;;;;25.97;8.47;;;9.90;99.90;;;;;;5067921;28;20476;-88
2023/03/30 06:54:59;;;;;;;33.72;10.13;;;9.90;99.90;;;;;;5061212;28;20477;-87
2023/03/30 06:57:25;;;;;;;38.47;11.60;;;9.90;99.90;;;;;;5076612;28;20024;-88
2023/03/30 06:59:51;;;;;;;30.63;8.85;;;9.90;99.90;;;;;;5054069;28;20081;-87
2023/03/30 07:02:20;;;;;;;35.45;11.07;;;9.90;99.90;;;;;;5096530;28;20037;-88
2023/03/30 07:05:11;;;;;;;31.58;10.52;;;9.80;99.90;;;;;;5070079;28;20417;-88
2023/03/30 07:08:07;;;;;;;42.35;10.82;;;9.80;99.90;;;;;;5060926;28;20021;-88
2023/03/30 07:10:34;;;;;;;32.70;11.80;;;9.80;99.90;;;;;;5051522;28;20063;-87
2023/03/30 07:13:02;;;;;;;27.45;10.00;;;9.80;99.90;;;;;;5071834;28;20063;-87
2023/03/30 07:15:29;;;;;;;29.25;7.82;;;9.80;99.90;;;;;;5043658;28;20825;-87
2023/03/30 07:17:55;;;;;;;25.40;7.53;;;9.70;99.90;;;;;;5059515;28;20033;-87
2023/03/30 07:20:21;;;;;;;21.30;6.75;;;9.60;99.90;;;;;;5073259;28;20528;-88
2023/03/30 07:23:06;;;;;;;17.65;7.22;;;9.50;99.90;;;;;;5066473;28;20020;-88
2023/03/30 07:25:36;;;;;;;17.25;6.05;;;9.60;99.90;;;;;;5073348;28;20024;-88
2023/03/30 07:28:10;;;;;;;17.92;6.03;;;9.50;99.90;;;;;;5056516;28;20029;-88
2023/03/30 07:30:37;;;;;;;19.33;6.50;;;9.60;99.90;;;;;;5066634;28;20036;-88
2023/03/30 07:33:05;;;;;;;24.73;8.73;;;9.80;99.90;;;;;;5064980;28;20116;-87
2023/03/30 07:35:31;;;;;;;13.88;4.95;;;9.80;99.90;;;;;;5051719;28;20167;-88
2023/03/30 07:38:00;;;;;;;15.73;6.13;;;9.70;99.90;;;;;;5067294;28;20089;-88
2023/03/30 07:40:26;;;;;;;10.02;6.15;;;9.70;99.90;;;;;;5082628;28;20468;-87
2023/03/30 07:42:52;;;;;;;12.95;6.20;;;9.60;99.90;;;;;;5066828;28;20051;-87
2023/03/30 07:45:19;;;;;;;14.13;4.68;;;9.60;99.90;;;;;;5071208;28;20036;-87
2023/03/30 07:47:45;;;;;;;11.23;5.55;;;9.50;99.90;;;;;;5074065;28;20111;-87
2023/03/30 07:50:12;;;;;;;11.85;5.35;;;9.50;99.90;;;;;;5057106;28;20387;-88
2023/03/30 07:52:37;;;;;;;15.88;7.43;;;9.50;99.90;;;;;;5058601;28;20116;-87
2023/03/30 07:55:03;;;;;;;13.00;5.95;;;9.50;99.90;;;;;;5057434;28;20079;-87
2023/03/30 07:57:50;;;;;;;20.15;6.55;;;9.50;99.90;;;;;;5060121;28;20052;-88
2023/03/30 08:00:16;;;;;;;19.05;7.85;;;9.50;99.90;;;;;;5072491;28;20039;-86
2023/03/30 08:03:02;;;;;;;17.38;7.95;;;9.50;99.90;;;;;;5069060;28;20067;-87
2023/03/30 08:05:28;;;;;;;17.65;8.68;;;9.60;99.90;;;;;;5072515;28;20387;-87
2023/03/30 08:08:04;;;;;;;18.95;9.25;;;9.60;99.90;;;;;;5068414;28;20104;-87
2023/03/30 08:10:33;;;;;;;18.17;7.90;;;9.70;99.90;;;;;;5049437;28;20039;-87
2023/03/30 08:13:00;;;;;;;20.20;7.63;;;9.60;99.90;;;;;;5053007;28;20483;-87
2023/03/30 08:15:26;;;;;;;21.17;9.20;;;9.60;99.90;;;;;;5072472;28;20032;-88
2023/03/30 08:17:52;;;;;;;14.45;7.97;;;9.60;99.90;;;;;;5072861;28;20028;-88
2023/03/30 08:20:18;;;;;;;17.98;8.35;;;9.60;99.90;;;;;;5055551;28;20020;-88
2023/03/30 08:22:44;;;;;;;22.55;8.70;;;9.50;99.90;;;;;;5056901;28;20035;-88
2023/03/30 08:25:10;;;;;;;28.08;10.10;;;9.50;99.90;;;;;;5055561;28;20024;-88
2023/03/30 08:27:58;;;;;;;24.38;10.63;;;9.60;99.90;;;;;;5072569;28;20024;-88
2023/03/30 08:30:24;;;;;;;95.30;15.55;;;9.60;99.90;;;;;;5071448;28;20395;-88
2023/03/30 08:32:57;;;;;;;76.47;14.00;;;9.70;99.90;;;;;;5075261;28;20028;-88
2023/03/30 08:35:23;;;;;;;322.52;25.77;;;9.80;99.90;;;;;;5060069;28;20033;-88
2023/03/30 08:37:49;;;;;;;513.15;37.97;;;9.80;99.90;;;;;;5060198;28;20550;-87
2023/03/30 08:40:17;;;;;;;33.22;12.88;;;9.80;99.90;;;;;;5060251;28;20017;-88
2023/03/30 08:43:06;;;;;;;24.67;12.27;;;9.80;99.90;;;;;;5060085;28;20025;-88
2023/03/30 08:45:38;;;;;;;26.73;13.02;;;9.90;99.90;;;;;;5091015;28;20025;-88
2023/03/30 08:48:18;;;;;;;20.48;12.95;;;10.00;99.90;;;;;;5086913;28;20028;-88
2023/03/30 08:51:01;;;;;;;29.17;11.25;;;10.10;99.90;;;;;;5086450;28;20024;-88
2023/03/30 08:53:28;;;;;;;32.40;12.98;;;10.30;99.90;;;;;;5088547;28;20036;-88
2023/03/30 08:56:16;;;;;;;30.15;12.75;;;10.20;99.90;;;;;;5061128;28;20040;-88
2023/03/30 08:59:07;;;;;;;28.10;13.02;;;10.20;99.90;;;;;;5078828;28;20058;-88
2023/03/30 09:01:45;;;;;;;27.63;13.02;;;10.40;99.90;;;;;;5068715;28;20028;-89
2023/03/30 09:04:30;;;;;;;25.08;12.57;;;10.60;99.90;;;;;;5052406;28;20534;-88
2023/03/30 09:07:35;;;;;;;20.35;10.93;;;10.90;99.90;;;;;;5065461;28;20048;-88
2023/03/30 09:10:03;;;;;;;23.67;10.00;;;11.20;99.90;;;;;;4990452;28;20034;-89
2023/03/30 09:12:37;;;;;;;30.13;11.88;;;11.10;99.90;;;;;;5052651;28;20040;-88
2023/03/30 09:15:42;;;;;;;21.60;10.57;;;11.00;99.90;;;;;;5044827;28;20535;-88
2023/03/30 09:18:20;;;;;;;17.83;10.32;;;10.90;99.90;;;;;;5057512;28;20498;-88
2023/03/30 09:20:47;;;;;;;22.33;9.43;;;10.80;99.90;;;;;;5063033;28;20084;-88
2023/03/30 09:23:16;;;;;;;24.08;10.27;;;10.70;99.90;;;;;;5080678;28;20124;-88
2023/03/30 09:26:20;;;;;;;25.17;8.88;;;10.60;99.90;;;;;;5058949;28;20510;-88
2023/03/30 09:28:54;;;;;;;24.42;8.70;;;10.60;99.90;;;;;;5078243;28;20034;-89
2023/03/30 09:31:26;;;;;;;17.35;9.23;;;10.60;99.90;;;;;;5083809;28;20028;-88
2023/03/30 09:34:12;;;;;;;18.05;9.38;;;10.60;99.90;;;;;;5076382;28;20055;-88
2023/03/30 09:37:04;;;;;;;19.15;8.00;;;10.50;99.90;;;;;;5063849;28;20495;-89
2023/03/30 09:39:33;;;;;;;19.20;8.82;;;10.40;99.90;;;;;;5095835;28;20028;-89
2023/03/30 09:42:28;;;;;;;26.52;8.88;;;10.40;99.90;;;;;;5067903;28;20780;-89
2023/03/30 09:45:16;;;;;;;16.58;7.70;;;10.40;99.90;;;;;;5084054;28;20067;-89
2023/03/30 09:47:42;;;;;;;19.38;7.70;;;10.40;99.90;;;;;;5049479;28;20505;-89
2023/03/30 09:50:14;;;;;;;17.63;8.50;;;10.40;99.90;;;;;;5066297;28;20029;-89
2023/03/30 09:52:52;;;;;;;18.75;7.55;;;10.40;99.90;;;;;;5064537;28;20115;-88
2023/03/30 09:55:21;;;;;;;17.02;8.63;;;10.40;99.90;;;;;;5060839;28;20033;-88
2023/03/30 09:57:48;;;;;;;16.52;7.70;;;10.40;99.90;;;;;;5067507;28;20058;-88
2023/03/30 10:00:25;;;;;;;29.70;8.73;;;10.50;99.90;;;;;;5061558;28;20029;-88
2023/03/30 10:03:20;;;;;;;16.00;6.72;;;10.70;99.90;;;;;;5055874;28;20074;-88
2023/03/30 10:06:11;;;;;;;15.05;7.45;;;10.70;99.90;;;;;;5070235;28;20024;-89
2023/03/30 10:08:40;;;;;;;;;;;10.60;99.90;;;;;;5089488;28;20036;-88
2023/03/30 10:11:06;;;;;;;18.88;8.15;;;10.60;99.90;;;;;;5055672;28;19909;-88
2023/03/30 10:13:40;;;;;;;21.88;8.90;;;10.60;99.90;;;;;;5077760;28;20033;-88
2023/03/30 10:16:26;;;;;;;16.38;8.98;;;10.70;99.90;;;;;;5068043;28;20033;-89
2023/03/30 10:18:54;;;;;;;15.95;8.63;;;10.80;99.90;;;;;;5073044;28;20051;-88
2023/03/30 10:21:25;;;;;;;19.92;8.45;;;10.90;99.90;;;;;;5060854;28;20052;-88
2023/03/30 10:24:01;;;;;;;15.20;7.57;;;11.10;99.90;;;;;;5075682;28;20069;-89
2023/03/30 10:26:29;;;;;;;18.13;7.55;;;11.10;99.90;;;;;;5075972;28;20036;-89
2023/03/30 10:29:15;;;;;;;16.70;7.57;;;11.20;99.90;;;;;;5075209;28;20028;-88
2023/03/30 10:31:47;;;;;;;15.55;6.47;;;11.30;99.90;;;;;;5075549;28;20119;-88
2023/03/30 10:34:20;;;;;;;21.40;7.60;;;11.50;99.90;;;;;;5091392;28;20058;-88
2023/03/30 10:36:49;;;;;;;14.45;5.82;;;11.60;99.90;;;;;;5091430;28;20033;-88
2023/03/30 10:39:30;;;;;;;15.20;6.97;;;11.50;99.90;;;;;;5074713;28;20426;-88
2023/03/30 10:42:00;;;;;;;21.85;7.70;;;11.60;99.90;;;;;;5068295;28;20033;-88
2023/03/30 10:44:44;;;;;;;21.45;7.00;;;11.70;99.90;;;;;;5057377;28;20376;-88
2023/03/30 10:47:40;;;;;;;15.60;6.57;;;11.60;99.90;;;;;;5091782;28;20588;-88
2023/03/30 10:50:12;;;;;;;16.92;7.18;;;11.60;99.90;;;;;;5068435;28;20039;-88
2023/03/30 10:53:19;;;;;;;22.92;7.20;;;11.50;99.90;;;;;;5072536;28;20026;-88
2023/03/30 10:55:54;;;;;;;20.25;6.93;;;11.40;99.90;;;;;;5053507;28;20116;-88
2023/03/30 10:59:07;;;;;;;18.80;6.72;;;11.20;99.90;;;;;;5074082;28;20062;-88
2023/03/30 11:02:12;;;;;;;18.63;7.50;;;11.10;99.90;;;;;;5071749;28;20115;-88
2023/03/30 11:04:42;;;;;;;16.50;7.82;;;10.90;99.90;;;;;;5053474;28;20033;-88
2023/03/30 11:07:34;;;;;;;19.95;7.78;;;10.80;99.90;;;;;;5057671;28;20024;-88
2023/03/30 11:10:30;;;;;;;20.80;7.82;;;10.80;99.90;;;;;;5074278;28;20032;-88
2023/03/30 11:13:06;;;;;;;16.48;7.97;;;10.90;99.90;;;;;;5071106;28;20036;-88
2023/03/30 11:15:45;;;;;;;14.73;7.03;;;11.20;99.90;;;;;;5072397;28;20060;-88
2023/03/30 11:18:36;;;;;;;18.17;7.97;;;11.30;99.90;;;;;;5056946;28;20024;-88
2023/03/30 11:21:14;;;;;;;18.98;6.85;;;11.70;99.90;;;;;;5072956;28;20024;-88
2023/03/30 11:23:48;;;;;;;11.15;6.80;;;11.90;99.90;;;;;;5072098;28;20066;-89
2023/03/30 11:26:54;;;;;;;17.58;6.13;;;12.40;99.90;;;;;;5056702;28;20039;-88
2023/03/30 11:29:36;;;;;;;18.30;6.18;;;12.60;99.90;;;;;;5069638;28;20025;-89
2023/03/30 11:32:26;;;;;;;17.75;6.38;;;12.60;99.90;;;;;;5073004;28;20032;-88
2023/03/30 11:35:01;;;;;;;12.85;5.70;;;12.40;99.90;;;;;;5072052;28;20050;-89
2023/03/30 11:37:30;;;;;;;15.90;5.88;;;12.30;99.90;;;;;;5072906;28;20032;-88
2023/03/30 11:40:07;;;;;;;9.18;4.65;;;12.40;99.90;;;;;;5073149;28;20111;-88
2023/03/30 11:42:35;;;;;;;9.77;5.15;;;12.70;99.90;;;;;;5080913;28;20058;-88
2023/03/30 11:45:03;;;;;;;13.07;4.60;;;13.80;99.90;;;;;;5056189;28;20070;-88
2023/03/30 11:48:07;;;;;;;17.58;5.47;;;13.90;99.90;;;;;;5055141;28;20042;-87
2023/03/30 11:51:14;;;;;;;18.40;4.13;;;13.70;99.90;;;;;;5072554;28;20024;-88
2023/03/30 11:53:58;;;;;;;12.57;4.47;;;13.80;99.90;;;;;;5074249;28;20135;-88
2023/03/30 11:56:45;;;;;;;20.48;5.15;;;13.80;99.90;;;;;;5071973;28;20075;-88
2023/03/30 11:59:28;;;;;;;18.27;4.88;;;13.80;99.90;;;;;;5072341;28;20025;-87
2023/03/30 12:02:09;;;;;;;15.25;4.25;;;13.30;99.90;;;;;;5090335;28;20562;-88
2023/03/30 12:04:56;;;;;;;13.85;4.07;;;12.90;99.90;;;;;;5072677;28;20135;-87
2023/03/30 12:07:48;;;;;;;12.77;4.30;;;13.10;99.90;;;;;;5069668;28;20029;-88
2023/03/30 12:10:27;;;;;;;14.05;4.40;;;13.10;99.90;;;;;;5073642;28;20029;-88
2023/03/30 12:12:54;;;;;;;12.43;3.97;;;12.70;99.90;;;;;;5072739;28;20028;-88
2023/03/30 12:15:41;;;;;;;13.15;4.13;;;12.90;99.90;;;;;;5071833;28;20036;-88
2023/03/30 12:18:28;;;;;;;26.42;6.35;;;13.70;99.90;;;;;;5054881;28;20044;-88
2023/03/30 12:21:17;;;;;;;16.40;3.70;;;13.80;99.90;;;;;;5070647;28;20067;-87
2023/03/30 12:23:47;;;;;;;12.73;3.85;;;14.10;99.90;;;;;;5088093;28;20436;-87
2023/03/30 12:26:27;;;;;;;13.07;4.37;;;14.20;99.90;;;;;;5071734;28;20032;-88
2023/03/30 12:28:52;;;;;;;11.63;3.05;;;14.40;99.90;;;;;;5071938;28;20274;-88
2023/03/30 12:31:19;;;;;;;9.13;2.97;;;14.50;99.90;;;;;;5071179;28;20417;-87
2023/03/30 12:33:50;;;;;;;10.02;3.00;;;14.30;99.90;;;;;;5087778;28;20546;-88
2023/03/30 12:36:33;;;;;;;10.48;2.83;;;14.10;99.90;;;;;;5071044;28;20032;-88
2023/03/30 12:39:01;;;;;;;13.95;3.20;;;14.00;99.90;;;;;;5072306;28;20032;-87
2023/03/30 12:41:37;;;;;;;10.55;2.78;;;14.30;99.90;;;;;;5071446;28;20060;-88
2023/03/30 12:44:35;;;;;;;16.58;3.22;;;14.60;99.90;;;;;;5054663;28;20123;-88
2023/03/30 12:47:12;;;;;;;13.77;3.35;;;14.80;99.90;;;;;;5071803;28;20028;-88
2023/03/30 12:49:57;;;;;;;10.13;3.08;;;14.50;99.90;;;;;;5071228;28;20040;-87
2023/03/30 12:52:35;;;;;;;11.45;3.65;;;14.80;99.90;;;;;;5054228;28;20047;-87
2023/03/30 12:55:06;;;;;;;22.25;3.15;;;14.90;99.90;;;;;;5054617;28;20120;-87
2023/03/30 12:57:47;;;;;;;7.72;3.42;;;14.90;99.90;;;;;;5070568;28;20044;-88
2023/03/30 13:00:30;;;;;;;10.95;3.58;;;14.80;99.90;;;;;;5069801;28;20017;-88
2023/03/30 13:03:24;;;;;;;10.25;2.95;;;14.80;99.90;;;;;;5066935;28;20029;-88
2023/03/30 13:05:53;;;;;;;9.98;2.78;;;14.90;99.90;;;;;;5064185;28;20085;-88
2023/03/30 13:08:35;;;;;;;13.18;3.95;;;14.90;99.90;;;;;;5053909;28;20035;-87
2023/03/30 13:11:18;;;;;;;8.98;3.55;;;14.70;99.90;;;;;;5087564;28;20025;-88
2023/03/30 13:13:51;;;;;;;9.68;3.30;;;14.60;99.90;;;;;;5087426;28;20037;-88
2023/03/30 13:16:51;;;;;;;11.75;3.10;;;14.60;99.90;;;;;;5072324;28;20032;-88
2023/03/30 13:19:32;;;;;;;9.57;3.75;;;14.70;99.90;;;;;;5074501;28;20044;-88
2023/03/30 13:22:10;;;;;;;8.98;2.88;;;14.30;99.90;;;;;;5068759;28;20060;-88
2023/03/30 13:24:42;;;;;;;15.85;3.78;;;13.90;99.90;;;;;;5076842;28;20028;-87
2023/03/30 13:27:17;;;;;;;17.17;4.13;;;13.80;99.90;;;;;;5075288;28;20078;-88
2023/03/30 13:29:58;;;;;;;10.82;4.40;;;13.70;99.90;;;;;;5058668;28;20456;-88
2023/03/30 13:32:36;;;;;;;16.48;4.07;;;14.20;99.90;;;;;;5076124;28;20032;-88
2023/03/30 13:35:27;;;;;;;10.25;3.40;;;14.60;99.90;;;;;;5068837;28;20056;-88